createdAt,value
2019-05-11T00:01:58.209Z,7.97
2019-05-11T00:04:31.645Z,5.77
2019-05-11T00:07:05.119Z,7.40
2019-05-11T00:09:38.541Z,7.63
2019-05-11T00:12:11.935Z,7.40
2019-05-11T00:14:45.369Z,8.40
2019-05-11T00:17:18.783Z,7.20
2019-05-11T00:19:52.197Z,8.70
2019-05-11T00:22:25.587Z,7.07
2019-05-11T00:24:59.034Z,7.37
2019-05-11T00:27:32.423Z,7.47
2019-05-11T00:30:07.888Z,8.17
2019-05-11T00:32:41.305Z,7.67
2019-05-11T00:35:14.726Z,7.53
2019-05-11T00:37:48.135Z,7.53
2019-05-11T00:40:21.572Z,6.27
2019-05-11T00:42:55.044Z,5.43
2019-05-11T00:45:28.450Z,7.80
2019-05-11T00:48:01.852Z,7.83
2019-05-11T00:50:39.294Z,8.03
2019-05-11T00:53:10.450Z,8.30
2019-05-11T00:55:43.942Z,6.33
2019-05-11T00:58:17.340Z,14.20
2019-05-11T01:00:50.775Z,6.80
2019-05-11T01:03:24.174Z,4.63
2019-05-11T01:05:57.586Z,5.63
2019-05-11T01:08:30.980Z,6.77
2019-05-11T01:11:04.476Z,5.93
2019-05-11T01:13:37.851Z,5.53
2019-05-11T01:16:11.265Z,6.87
2019-05-11T01:18:44.800Z,5.97
2019-05-11T01:21:18.291Z,6.43
2019-05-11T01:23:51.689Z,8.10
2019-05-11T01:26:25.113Z,4.97
2019-05-11T01:28:58.514Z,7.30
2019-05-11T01:31:31.935Z,6.77
2019-05-11T01:34:05.325Z,6.10
2019-05-11T01:36:38.718Z,6.23
2019-05-11T01:39:12.141Z,6.53
2019-05-11T01:41:45.555Z,8.30
2019-05-11T01:44:18.950Z,5.80
2019-05-11T01:46:52.447Z,8.57
2019-05-11T01:49:25.837Z,11.17
2019-05-11T01:51:59.263Z,9.20
2019-05-11T01:54:32.674Z,8.00
2019-05-11T01:57:06.101Z,9.13
2019-05-11T01:59:39.519Z,9.03
2019-05-11T02:02:12.958Z,8.20
2019-05-11T02:04:47.993Z,6.87
2019-05-11T02:07:21.607Z,6.50
2019-05-11T02:09:55.033Z,8.30
2019-05-11T02:12:28.457Z,11.73
2019-05-11T02:15:01.877Z,9.10
2019-05-11T02:17:35.297Z,7.73
2019-05-11T02:20:09.147Z,6.13
2019-05-11T02:22:42.576Z,8.03
2019-05-11T02:25:16.110Z,9.57
2019-05-11T02:27:49.592Z,6.67
2019-05-11T02:30:23.738Z,7.63
2019-05-11T02:32:57.151Z,7.40
2019-05-11T02:35:30.564Z,7.37
2019-05-11T02:38:04.062Z,9.37
2019-05-11T02:40:37.466Z,8.37
2019-05-11T02:43:10.868Z,9.13
2019-05-11T02:45:44.280Z,9.80
2019-05-11T02:48:17.713Z,10.23
2019-05-11T02:50:52.171Z,13.10
2019-05-11T02:53:27.084Z,13.67
2019-05-11T02:56:01.225Z,8.93
2019-05-11T02:58:34.652Z,7.73
2019-05-11T03:01:08.050Z,7.07
2019-05-11T03:03:41.504Z,13.70
2019-05-11T03:06:14.912Z,11.27
2019-05-11T03:08:48.330Z,10.20
2019-05-11T03:11:24.141Z,7.87
2019-05-11T03:13:56.842Z,11.00
2019-05-11T03:16:30.273Z,11.10
2019-05-11T03:19:03.716Z,13.63
2019-05-11T03:21:37.140Z,10.63
2019-05-11T03:24:10.555Z,10.10
2019-05-11T03:26:43.988Z,10.50
2019-05-11T03:29:17.409Z,10.73
2019-05-11T03:31:50.839Z,8.13
2019-05-11T03:34:24.250Z,9.67
2019-05-11T03:36:57.655Z,12.03
2019-05-11T03:39:31.121Z,8.00
2019-05-11T03:42:13.864Z,9.80
2019-05-11T03:44:39.734Z,9.67
2019-05-11T03:47:13.177Z,10.83
2019-05-11T03:49:46.568Z,10.57
2019-05-11T03:52:19.993Z,11.40
2019-05-11T03:54:53.389Z,13.50
2019-05-11T03:57:26.839Z,10.63
2019-05-11T04:00:00.222Z,14.43
2019-05-11T04:02:33.624Z,13.73
2019-05-11T04:05:07.474Z,14.13
2019-05-11T04:07:40.990Z,12.50
2019-05-11T04:10:15.726Z,15.53
2019-05-11T04:12:49.138Z,12.03
2019-05-11T04:15:22.540Z,12.27
2019-05-11T04:17:55.974Z,13.63
2019-05-11T04:20:29.367Z,14.00
2019-05-11T04:23:02.792Z,15.30
2019-05-11T04:25:36.201Z,12.80
2019-05-11T04:28:09.635Z,12.33
2019-05-11T04:30:43.100Z,22.23
2019-05-11T04:33:16.577Z,15.30
2019-05-11T04:35:49.984Z,17.23
2019-05-11T04:38:23.396Z,16.07
2019-05-11T04:40:56.799Z,14.77
2019-05-11T04:43:30.240Z,15.47
2019-05-11T04:46:03.659Z,13.23
2019-05-11T04:48:37.072Z,11.83
2019-05-11T04:51:10.462Z,12.27
2019-05-11T04:53:43.880Z,10.50
2019-05-11T04:56:17.276Z,11.97
2019-05-11T04:58:50.714Z,10.53
2019-05-11T05:01:24.124Z,9.43
2019-05-11T05:04:12.256Z,11.80
2019-05-11T05:06:32.739Z,9.90
2019-05-11T05:09:06.854Z,8.80
2019-05-11T05:11:40.228Z,10.23
2019-05-11T05:14:13.640Z,9.20
2019-05-11T05:16:47.064Z,13.13
2019-05-11T05:19:20.599Z,10.13
2019-05-11T05:21:54.048Z,10.83
2019-05-11T05:24:27.489Z,11.93
2019-05-11T05:27:00.905Z,12.73
2019-05-11T05:29:35.908Z,14.80
2019-05-11T05:32:09.600Z,13.87
2019-05-11T05:34:43.437Z,13.87
2019-05-11T05:37:16.844Z,13.40
2019-05-11T05:39:50.286Z,12.50
2019-05-11T05:42:23.698Z,15.93
2019-05-11T05:44:57.138Z,14.50
2019-05-11T05:47:30.537Z,13.70
2019-05-11T05:50:06.792Z,15.37
2019-05-11T05:52:40.191Z,11.23
2019-05-11T05:55:13.747Z,14.30
2019-05-11T05:57:47.128Z,14.17
2019-05-11T06:00:20.683Z,12.23
2019-05-11T06:02:54.163Z,14.27
2019-05-11T06:05:27.599Z,14.53
2019-05-11T06:08:00.994Z,13.60
2019-05-11T06:10:34.490Z,11.43
2019-05-11T06:13:07.905Z,14.23
2019-05-11T06:15:41.345Z,13.73
2019-05-11T06:18:14.742Z,11.63
2019-05-11T06:20:48.176Z,13.23
2019-05-11T06:23:21.583Z,10.93
2019-05-11T06:25:55.041Z,9.50
2019-05-11T06:28:28.482Z,8.60
2019-05-11T06:31:01.915Z,7.93
2019-05-11T06:33:35.281Z,8.03
2019-05-11T06:36:08.692Z,9.53
2019-05-11T06:38:42.108Z,8.17
2019-05-11T06:41:15.686Z,8.10
2019-05-11T06:44:01.265Z,7.73
2019-05-11T06:46:24.281Z,9.73
2019-05-11T06:48:57.672Z,11.07
2019-05-11T06:51:31.089Z,8.33
2019-05-11T06:54:04.568Z,7.37
2019-05-11T06:56:38.035Z,7.23
2019-05-11T06:59:11.416Z,7.30
2019-05-11T07:01:44.849Z,8.57
2019-05-11T07:04:18.268Z,7.37
2019-05-11T07:06:51.656Z,8.20
2019-05-11T07:09:25.059Z,6.45
2019-05-11T07:11:58.530Z,6.93
2019-05-11T07:14:32.035Z,7.07
2019-05-11T07:17:05.528Z,6.40
2019-05-11T07:19:38.933Z,6.50
2019-05-11T07:22:12.343Z,7.63
2019-05-11T07:24:45.759Z,7.07
2019-05-11T07:27:19.192Z,6.13
2019-05-11T07:29:52.619Z,5.77
2019-05-11T07:32:26.422Z,4.97
2019-05-11T07:35:01.327Z,5.33
2019-05-11T07:37:34.718Z,5.90
2019-05-11T07:40:08.958Z,6.10
2019-05-11T07:42:43.174Z,5.13
2019-05-11T07:45:18.071Z,5.47
2019-05-11T07:47:51.616Z,5.23
2019-05-11T07:50:25.020Z,8.17
2019-05-11T07:52:59.014Z,4.93
2019-05-11T07:55:32.481Z,5.07
2019-05-11T07:58:08.000Z,5.47
2019-05-11T08:00:41.127Z,4.53
2019-05-11T08:03:14.610Z,6.70
2019-05-11T08:05:48.081Z,6.37
2019-05-11T08:08:24.971Z,6.80
2019-05-11T08:10:58.629Z,3.33
2019-05-11T08:13:32.431Z,3.67
2019-05-11T08:16:08.239Z,2.70
2019-05-11T08:18:41.755Z,4.33
2019-05-11T08:21:15.167Z,3.20
2019-05-11T08:23:48.592Z,2.10
2019-05-11T08:26:21.986Z,2.50
2019-05-11T08:28:57.689Z,2.27
2019-05-11T08:31:30.641Z,3.40
2019-05-11T08:34:04.198Z,2.30
2019-05-11T08:36:37.979Z,3.27
2019-05-11T08:39:11.684Z,1.77
2019-05-11T08:41:45.113Z,1.40
2019-05-11T08:44:18.552Z,1.20
2019-05-11T08:46:51.957Z,1.50
2019-05-11T08:49:25.348Z,2.23
2019-05-11T08:51:58.840Z,2.13
2019-05-11T08:54:32.265Z,3.07
2019-05-11T08:57:08.002Z,2.30
2019-05-11T08:59:40.802Z,1.10
2019-05-11T09:02:14.215Z,3.07
2019-05-11T09:04:48.406Z,1.90
2019-05-11T09:07:22.113Z,2.10
2019-05-11T09:09:55.529Z,1.70
2019-05-11T09:12:29.046Z,2.50
2019-05-11T09:15:02.443Z,1.60
2019-05-11T09:17:38.053Z,2.67
2019-05-11T09:20:11.462Z,2.00
2019-05-11T09:22:44.864Z,1.77
2019-05-11T09:25:18.619Z,1.70
2019-05-11T09:27:52.112Z,1.00
2019-05-11T09:30:25.526Z,0.87
2019-05-11T09:32:58.943Z,0.77
2019-05-11T09:35:45.707Z,1.80
2019-05-11T09:38:08.066Z,0.50
2019-05-11T09:40:41.543Z,1.53
2019-05-11T09:43:14.975Z,1.93
2019-05-11T09:45:51.162Z,2.23
2019-05-11T09:48:23.587Z,1.03
2019-05-11T09:50:58.781Z,2.00
2019-05-11T09:53:32.348Z,2.50
2019-05-11T09:56:07.906Z,3.33
2019-05-11T09:58:40.982Z,3.57
2019-05-11T10:01:14.373Z,2.67
2019-05-11T10:03:48.355Z,1.10
2019-05-11T10:06:21.838Z,0.80
2019-05-11T10:08:57.739Z,1.23
2019-05-11T10:11:30.372Z,1.30
2019-05-11T10:14:03.965Z,2.60
2019-05-11T10:16:38.710Z,1.40
2019-05-11T10:19:12.262Z,0.93
2019-05-11T10:21:45.647Z,2.03
2019-05-11T10:24:19.041Z,2.60
2019-05-11T10:26:52.544Z,1.47
2019-05-11T10:29:26.039Z,1.60
2019-05-11T10:31:59.433Z,1.80
2019-05-11T10:34:32.859Z,1.57
2019-05-11T10:37:08.358Z,1.77
2019-05-11T10:39:41.392Z,1.83
2019-05-11T10:42:14.789Z,1.20
2019-05-11T10:44:48.228Z,0.60
2019-05-11T10:47:21.622Z,0.50
2019-05-11T10:49:55.027Z,1.43
2019-05-11T10:52:28.758Z,1.63
2019-05-11T10:55:02.202Z,0.60
2019-05-11T10:57:35.590Z,0.60
2019-05-11T11:00:09.782Z,0.57
2019-05-11T11:02:43.246Z,0.50
2019-05-11T11:05:18.694Z,2.20
2019-05-11T11:07:51.829Z,0.40
2019-05-11T11:10:25.253Z,0.40
2019-05-11T11:12:58.810Z,0.70
2019-05-11T11:15:32.344Z,1.23
2019-05-11T11:18:08.509Z,1.17
2019-05-11T11:20:42.351Z,1.03
2019-05-11T11:23:17.710Z,1.33
2019-05-11T11:25:51.339Z,1.17
2019-05-11T11:28:24.712Z,1.67
2019-05-11T11:30:58.524Z,1.73
2019-05-11T11:33:32.072Z,1.70
2019-05-11T11:36:05.507Z,1.50
2019-05-11T11:38:38.895Z,3.83
2019-05-11T11:41:12.329Z,1.90
2019-05-11T11:43:48.106Z,1.77
2019-05-11T11:46:20.964Z,1.90
2019-05-11T11:48:54.394Z,2.17
2019-05-11T11:51:28.632Z,2.27
2019-05-11T11:54:02.110Z,2.40
2019-05-11T11:56:37.732Z,3.40
2019-05-11T11:59:10.702Z,3.67
2019-05-11T12:01:44.093Z,3.40
2019-05-11T12:04:18.799Z,3.90
2019-05-11T12:06:52.330Z,3.90
2019-05-11T12:09:25.760Z,5.07
2019-05-11T12:11:59.214Z,4.10
2019-05-11T12:14:32.631Z,4.33
2019-05-11T12:17:08.700Z,4.53
2019-05-11T12:19:41.297Z,3.70
2019-05-11T12:22:14.689Z,3.63
2019-05-11T12:24:48.390Z,4.63
2019-05-11T12:27:21.772Z,3.20
2019-05-11T12:29:55.189Z,3.10
2019-05-11T12:32:30.288Z,2.50
2019-05-11T12:35:05.209Z,3.10
2019-05-11T12:37:38.622Z,2.40
2019-05-11T12:40:12.715Z,1.60
2019-05-11T12:42:48.651Z,1.50
2019-05-11T12:45:21.350Z,1.20
2019-05-11T12:47:54.781Z,2.60
2019-05-11T12:50:28.745Z,1.40
2019-05-11T12:53:02.238Z,1.60
2019-05-11T12:55:37.769Z,1.43
2019-05-11T12:58:10.828Z,1.77
2019-05-11T13:00:44.245Z,1.60
2019-05-11T13:03:18.682Z,1.63
2019-05-11T13:05:52.206Z,2.00
2019-05-11T13:08:27.660Z,1.13
2019-05-11T13:11:00.845Z,1.57
2019-05-11T13:13:34.225Z,1.93
2019-05-11T13:16:08.692Z,1.27
2019-05-11T13:18:42.231Z,1.40
2019-05-11T13:21:18.066Z,2.33
2019-05-11T13:23:50.846Z,1.40
2019-05-11T13:26:24.284Z,1.30
2019-05-11T13:28:58.443Z,1.00
2019-05-11T13:31:31.978Z,1.27
2019-05-11T13:34:05.381Z,2.87
2019-05-11T13:36:38.798Z,1.70
2019-05-11T13:39:12.190Z,1.73
2019-05-11T13:41:47.611Z,2.47
2019-05-11T13:44:20.761Z,2.20
2019-05-11T13:46:54.186Z,2.57
2019-05-11T13:49:28.327Z,1.83
2019-05-11T13:52:02.021Z,1.70
2019-05-11T13:54:37.482Z,1.90
2019-05-11T13:57:10.568Z,1.90
2019-05-11T13:59:43.947Z,2.03
2019-05-11T14:02:18.056Z,1.40
2019-05-11T14:04:51.638Z,1.87
2019-05-11T14:07:25.072Z,1.80
2019-05-11T14:09:59.014Z,3.30
2019-05-11T14:12:32.443Z,1.87
2019-05-11T14:15:08.546Z,2.27
2019-05-11T14:17:42.166Z,2.93
2019-05-11T14:20:15.720Z,1.33
2019-05-11T14:22:50.653Z,1.83
2019-05-11T14:25:24.067Z,1.80
2019-05-11T14:27:59.561Z,1.60
2019-05-11T14:30:32.751Z,1.40
2019-05-11T14:33:08.518Z,1.70
2019-05-11T14:35:41.370Z,1.63
2019-05-11T14:38:14.768Z,1.57
2019-05-11T14:40:48.192Z,1.30
2019-05-11T14:43:21.647Z,1.30
2019-05-11T14:45:55.045Z,1.50
2019-05-11T14:48:30.249Z,1.70
2019-05-11T14:51:03.603Z,1.27
2019-05-11T14:53:37.806Z,1.20
2019-05-11T14:56:11.440Z,1.10
2019-05-11T14:58:44.834Z,1.17
2019-05-11T15:01:18.643Z,1.40
2019-05-11T15:03:52.005Z,1.77
2019-05-11T15:06:27.803Z,1.77
2019-05-11T15:09:00.634Z,1.23
2019-05-11T15:11:34.067Z,1.80
2019-05-11T15:14:08.250Z,1.27
2019-05-11T15:16:41.774Z,1.53
2019-05-11T15:19:15.174Z,1.70
2019-05-11T15:21:48.594Z,1.27
2019-05-11T15:24:22.046Z,1.20
2019-05-11T15:26:57.481Z,1.60
2019-05-11T15:29:30.580Z,1.43
2019-05-11T15:32:04.109Z,1.50
2019-05-11T15:34:37.950Z,1.50
2019-05-11T15:37:11.429Z,2.67
2019-05-11T15:39:44.849Z,2.07
2019-05-11T15:42:19.963Z,2.30
2019-05-11T15:44:53.559Z,1.20
2019-05-11T15:47:28.356Z,2.37
2019-05-11T15:50:02.094Z,1.13
2019-05-11T15:52:39.920Z,1.50
2019-05-11T15:55:12.145Z,1.70
2019-05-11T15:57:48.076Z,1.67
2019-05-11T16:00:20.915Z,2.27
2019-05-11T16:02:54.351Z,1.63
2019-05-11T16:05:28.482Z,1.43
2019-05-11T16:08:02.067Z,1.30
2019-05-11T16:10:35.547Z,1.20
2019-05-11T16:13:09.352Z,1.50
2019-05-11T16:15:43.331Z,1.50
2019-05-11T16:18:18.921Z,1.60
2019-05-11T16:20:51.896Z,1.57
2019-05-11T16:23:25.307Z,1.80
2019-05-11T16:25:58.764Z,2.00
2019-05-11T16:28:32.170Z,1.70
2019-05-11T16:31:05.744Z,1.77
2019-05-11T16:33:39.119Z,1.80
2019-05-11T16:36:12.544Z,1.80
2019-05-11T16:38:48.233Z,2.30
2019-05-11T16:41:21.290Z,3.03
2019-05-11T16:43:54.703Z,3.43
2019-05-11T16:46:28.506Z,4.40
2019-05-11T16:49:01.979Z,4.20
2019-05-11T16:51:35.456Z,3.13
2019-05-11T16:54:08.877Z,3.27
2019-05-11T16:56:42.295Z,4.20
2019-05-11T16:59:18.018Z,6.70
2019-05-11T17:01:50.884Z,5.20
2019-05-11T17:04:26.660Z,4.87
2019-05-11T17:06:59.487Z,3.60
2019-05-11T17:09:32.899Z,6.40
2019-05-11T17:12:08.418Z,3.17
2019-05-11T17:14:59.673Z,3.40
2019-05-11T17:17:33.081Z,3.57
2019-05-11T17:20:08.249Z,3.60
2019-05-11T17:22:41.659Z,5.20
2019-05-11T17:25:15.173Z,3.60
2019-05-11T17:27:49.135Z,3.70
2019-05-11T17:30:22.804Z,3.40
2019-05-11T17:32:56.195Z,4.40
2019-05-11T17:35:29.640Z,4.23
2019-05-11T17:38:03.049Z,3.93
2019-05-11T17:40:37.822Z,4.87
2019-05-11T17:43:11.493Z,1.87
2019-05-11T17:45:44.926Z,4.57
2019-05-11T17:48:18.358Z,4.60
2019-05-11T17:50:51.810Z,4.93
2019-05-11T17:53:25.306Z,4.60
2019-05-11T17:55:58.718Z,3.83
2019-05-11T17:58:32.151Z,3.97
2019-05-11T18:01:06.541Z,4.00
2019-05-11T18:03:39.969Z,4.50
2019-05-11T18:06:13.410Z,4.10
2019-05-11T18:08:47.841Z,5.30
2019-05-11T18:11:21.370Z,3.90
2019-05-11T18:13:54.770Z,4.63
2019-05-11T18:16:28.212Z,4.23
2019-05-11T18:19:01.609Z,4.13
2019-05-11T18:21:35.046Z,3.43
2019-05-11T18:24:09.133Z,3.40
2019-05-11T18:26:42.778Z,5.10
2019-05-11T18:29:18.122Z,5.80
2019-05-11T18:31:51.342Z,3.77
2019-05-11T18:34:24.754Z,4.27
2019-05-11T18:36:58.188Z,5.60
2019-05-11T18:39:31.605Z,3.47
2019-05-11T18:42:05.096Z,6.63
2019-05-11T18:44:38.519Z,3.93
2019-05-11T18:47:11.952Z,3.23
2019-05-11T18:49:45.362Z,4.37
2019-05-11T18:52:18.967Z,2.97
2019-05-11T18:54:52.280Z,2.93
2019-05-11T18:57:27.736Z,5.23
2019-05-11T19:00:00.914Z,2.73
2019-05-11T19:02:34.412Z,5.17
2019-05-11T19:05:07.981Z,3.17
2019-05-11T19:07:41.403Z,3.17
2019-05-11T19:10:14.948Z,3.47
2019-05-11T19:12:49.060Z,3.13
2019-05-11T19:15:22.614Z,3.93
2019-05-11T19:17:58.109Z,2.53
2019-05-11T19:20:44.521Z,4.10
2019-05-11T19:23:08.341Z,3.53
2019-05-11T19:25:41.604Z,3.80
2019-05-11T19:28:15.036Z,2.77
2019-05-11T19:30:48.891Z,3.83
2019-05-11T19:33:24.328Z,5.53
2019-05-11T19:35:58.614Z,5.73
2019-05-11T19:38:32.203Z,4.67
2019-05-11T19:41:07.905Z,4.03
2019-05-11T19:43:40.763Z,3.60
2019-05-11T19:46:14.222Z,4.00
2019-05-11T19:48:47.737Z,4.10
2019-05-11T19:51:21.123Z,7.50
2019-05-11T19:53:54.627Z,5.40
2019-05-11T19:56:29.002Z,4.13
2019-05-11T19:59:02.598Z,4.07
2019-05-11T20:01:36.001Z,4.80
2019-05-11T20:04:09.423Z,5.03
2019-05-11T20:06:42.898Z,3.27
2019-05-11T20:09:18.963Z,6.10
2019-05-11T20:11:51.482Z,3.53
2019-05-11T20:14:24.933Z,4.47
2019-05-11T20:16:59.428Z,5.83
2019-05-11T20:19:32.995Z,6.73
2019-05-11T20:22:06.423Z,4.00
2019-05-11T20:24:39.933Z,4.87
2019-05-11T20:27:13.321Z,4.93
2019-05-11T20:29:47.755Z,4.20
2019-05-11T20:32:21.370Z,5.47
2019-05-11T20:34:57.824Z,4.87
2019-05-11T20:37:31.295Z,5.73
2019-05-11T20:40:09.066Z,4.73
2019-05-11T20:42:41.846Z,4.33
2019-05-11T20:45:15.421Z,4.92
2019-05-11T20:47:49.181Z,4.40
2019-05-11T20:50:22.558Z,8.37
2019-05-11T20:52:58.071Z,5.03
2019-05-11T20:55:31.194Z,5.33
2019-05-11T20:58:04.675Z,5.50
2019-05-11T21:00:38.393Z,6.27
2019-05-11T21:03:11.877Z,5.60
2019-05-11T21:05:45.297Z,6.73
2019-05-11T21:08:18.706Z,7.10
2019-05-11T21:10:52.157Z,9.53
2019-05-11T21:13:25.542Z,8.20
2019-05-11T21:15:59.745Z,7.47
2019-05-11T21:18:33.160Z,8.07
2019-05-11T21:21:06.586Z,7.77
2019-05-11T21:23:40.685Z,8.10
2019-05-11T21:26:15.838Z,6.67
2019-05-11T21:28:49.454Z,8.07
2019-05-11T21:31:24.761Z,7.50
2019-05-11T21:33:58.031Z,8.83
2019-05-11T21:36:31.438Z,8.50
2019-05-11T21:39:07.963Z,10.43
2019-05-11T21:41:41.730Z,11.80
2019-05-11T21:44:15.153Z,9.00
2019-05-11T21:46:48.572Z,11.57
2019-05-11T21:49:21.992Z,12.87
2019-05-11T21:52:04.120Z,12.77
2019-05-11T21:54:30.543Z,12.23
2019-05-11T21:57:04.133Z,12.77
2019-05-11T21:59:37.970Z,13.33
2019-05-11T22:02:11.738Z,12.73
2019-05-11T22:04:45.181Z,11.60
2019-05-11T22:07:18.627Z,13.37
2019-05-11T22:09:52.053Z,13.80
2019-05-11T22:12:27.856Z,11.03
2019-05-11T22:15:00.842Z,10.47
2019-05-11T22:17:34.272Z,11.23
2019-05-11T22:20:08.445Z,10.93
2019-05-11T22:22:41.865Z,10.33
2019-05-11T22:25:15.438Z,10.13
2019-05-11T22:27:49.062Z,11.63
2019-05-11T22:30:22.517Z,11.80
2019-05-11T22:32:58.125Z,12.27
2019-05-11T22:35:31.080Z,13.93
2019-05-11T22:38:04.499Z,14.77
2019-05-11T22:40:38.472Z,12.13
2019-05-11T22:43:12.029Z,13.53
2019-05-11T22:45:45.692Z,11.60
2019-05-11T22:48:19.108Z,13.50
2019-05-11T22:50:52.621Z,11.33
2019-05-11T22:53:39.967Z,10.93
2019-05-11T22:56:01.168Z,12.63
2019-05-11T22:58:34.649Z,13.90
2019-05-11T23:01:08.551Z,13.13
2019-05-11T23:03:42.160Z,13.10
2019-05-11T23:06:17.900Z,12.30
2019-05-11T23:08:54.095Z,13.33
2019-05-11T23:11:28.345Z,14.60
2019-05-11T23:14:01.040Z,12.83
2019-05-11T23:16:34.475Z,12.70
2019-05-11T23:19:09.686Z,13.63
2019-05-11T23:21:43.245Z,12.80
2019-05-11T23:24:18.075Z,14.40
2019-05-11T23:26:51.559Z,17.43
2019-05-11T23:29:24.992Z,13.27
2019-05-11T23:31:58.476Z,12.93
2019-05-11T23:34:31.884Z,14.37
2019-05-11T23:37:05.323Z,14.87
2019-05-11T23:39:38.861Z,16.57
2019-05-11T23:42:12.265Z,13.90
2019-05-11T23:44:46.478Z,15.87
2019-05-11T23:47:20.880Z,15.37
2019-05-11T23:49:54.311Z,12.60
2019-05-11T23:52:29.539Z,13.30
2019-05-11T23:55:03.090Z,13.67
2019-05-11T23:57:37.858Z,14.67
